Terminal Aerodrome Forecast
Issued by NWS

Home | Current Version | Previous Version | Graphics & Text | Print | Product List | Glossary On
Versions: 1 2 3 4 5 6 7 8 9 10 11 12 13 14 15 16
000
FTUS43 KICT 222327
TAFCNU
TAF
KCNU 222327Z 2300/2324 29017G25KT P6SM BKN035
     FM230500 30014KT P6SM SCT090
     FM231100 31009KT P6SM FEW130
     FM232300 31005KT P6SM FEW250
      AMD NOT SKED=

USA.gov is the U.S. government's official web portal to all federal, state and local government web resources and services.